logo
Rechercher aéroport 
image banner adimage banner adimage banner ad
image banner ad

7CA3 - Mercy Medical Center

Situé à Redding, United States

ICAO - 7CA3, IATA -

Données fournies par Airmate  

Information générale

Coordonnées: N40°34'20" W122°23'48"
Élévation : 715 feet MSL.
Variation magnétique : 17° East
Voir autres Aéroports à California

Données opérationnelles

Special qualification required
Heure actuelle UTC:
Heure actuelle locale:
Météo à : KRDD - Redding Muni ( 11 km )
METAR: KRDD 281153Z AUTO 00000KT 10SM CLR 15/09 A2994 RMK AO2 SLP134 T01500089 10200 20144 53001
TAF: KRDD 281122Z 2812/2912 VRB05KT P6SM SCT250 FM282100 19008KT P6SM FEW250 FM290300 VRB04KT P6SM SCT250
Voir NOTAMs / SUP AIP / TFR affectant cet aéroport [VIEW]
Fréquences de communication: [VIEW]

Pistes:

Coordonnées de l'aéroport

Adresse: Redding United States

Vue satellite de 7CA3